createdAt,value
2023-02-23T01:55:00.516Z,25.76
2023-02-23T01:56:00.585Z,25.77
2023-02-23T01:57:00.608Z,25.79
2023-02-23T01:58:00.693Z,25.80
2023-02-23T01:59:00.724Z,25.77
2023-02-23T02:00:00.792Z,25.77
2023-02-23T02:01:01.115Z,25.77
2023-02-23T02:02:00.913Z,25.77
2023-02-23T02:03:00.970Z,25.77
2023-02-23T02:04:01.010Z,25.77
2023-02-23T02:05:01.121Z,25.77
2023-02-23T02:06:01.144Z,25.79
2023-02-23T02:07:01.217Z,25.77
2023-02-23T02:08:01.247Z,25.79
2023-02-23T02:09:01.269Z,25.76
2023-02-23T02:10:01.374Z,25.79
2023-02-23T02:11:01.413Z,25.77
2023-02-23T02:12:01.491Z,25.80
2023-02-23T02:13:01.514Z,25.79
2023-02-23T02:14:01.562Z,25.77
2023-02-23T02:15:01.638Z,25.77
2023-02-23T02:16:01.739Z,25.79
2023-02-23T02:17:01.746Z,25.77
2023-02-23T02:18:01.802Z,25.79
2023-02-23T02:19:01.865Z,25.74
2023-02-23T02:20:01.964Z,25.76
2023-02-23T02:21:01.967Z,25.79
2023-02-23T02:22:02.059Z,25.79
2023-02-23T02:23:02.095Z,25.77
2023-02-23T02:24:02.147Z,25.76
2023-02-23T02:25:02.336Z,25.77
2023-02-23T02:26:02.269Z,25.76
2023-02-23T02:27:02.342Z,25.74
2023-02-23T02:28:02.437Z,25.76
2023-02-23T02:29:02.454Z,25.77
2023-02-23T02:30:02.503Z,25.76
2023-02-23T02:31:02.602Z,25.77
2023-02-23T02:32:02.725Z,25.74
2023-02-23T02:33:02.686Z,25.73
2023-02-23T02:34:02.748Z,25.74
2023-02-23T02:35:02.831Z,25.73
2023-02-23T02:36:02.864Z,25.77
2023-02-23T02:37:02.941Z,25.76
2023-02-23T02:38:02.963Z,25.74
2023-02-23T02:39:03.032Z,25.74
2023-02-23T02:40:03.166Z,25.76
2023-02-23T02:41:03.166Z,25.74
2023-02-23T02:42:03.239Z,25.74
2023-02-23T02:43:03.282Z,25.74
2023-02-23T02:44:03.337Z,25.74
2023-02-23T02:45:03.378Z,25.74
2023-02-23T02:46:03.454Z,25.73
2023-02-23T02:47:03.517Z,25.73
2023-02-23T02:48:03.589Z,25.73
2023-02-23T02:49:03.649Z,25.73
2023-02-23T02:50:03.678Z,25.73
2023-02-23T02:51:03.818Z,25.73
2023-02-23T02:52:03.786Z,25.73
2023-02-23T02:53:03.900Z,25.72
2023-02-23T02:54:03.938Z,25.74
2023-02-23T02:55:04.060Z,25.70
2023-02-23T02:56:04.097Z,25.74
2023-02-23T02:57:04.091Z,25.72
2023-02-23T02:58:04.181Z,25.72
2023-02-23T04:41:10.513Z,25.77
2023-02-23T04:42:10.540Z,25.79
2023-02-23T04:43:10.618Z,25.81
2023-02-23T04:44:10.700Z,25.81
2023-02-23T04:45:10.826Z,25.85
2023-02-23T04:46:10.775Z,25.85
2023-02-23T04:47:10.803Z,25.87
2023-02-23T04:48:10.879Z,25.87
2023-02-23T04:49:10.886Z,25.88
2023-02-23T04:50:10.956Z,25.88
2023-02-23T04:51:10.986Z,25.90
2023-02-23T04:52:11.043Z,25.91
2023-02-23T04:53:11.087Z,25.94
2023-02-23T04:54:11.129Z,25.94
2023-02-23T04:55:11.158Z,25.95
2023-02-23T04:56:11.190Z,25.98
2023-02-23T04:57:11.236Z,25.98
2023-02-23T04:58:11.346Z,26.00
2023-02-23T04:59:11.298Z,26.01
2023-02-23T05:00:11.358Z,26.03
2023-02-23T05:01:11.390Z,26.03
2023-02-23T05:02:11.413Z,26.03
2023-02-23T05:03:11.449Z,26.05
2023-02-23T05:04:11.465Z,26.07
2023-02-23T05:05:11.542Z,26.05
2023-02-23T05:06:11.533Z,26.07
2023-02-23T05:07:11.580Z,26.08
2023-02-23T05:08:11.594Z,26.08
2023-02-23T05:09:11.633Z,26.08
2023-02-23T05:10:11.673Z,26.09
2023-02-23T05:11:11.710Z,26.11
2023-02-23T05:12:11.759Z,26.12
2023-02-23T05:13:11.787Z,26.09
2023-02-23T05:14:11.812Z,26.12
2023-02-23T05:15:11.835Z,26.11
2023-02-23T05:16:11.888Z,26.14
2023-02-23T05:17:11.839Z,26.12
2023-02-23T05:18:11.882Z,26.14
2023-02-23T05:19:11.912Z,26.15
2023-02-23T05:20:11.942Z,26.18
2023-02-23T05:21:11.935Z,26.15
2023-02-23T05:22:11.975Z,26.18
2023-02-23T05:23:11.974Z,26.14
2023-02-23T05:24:12.032Z,26.17
2023-02-23T05:25:12.047Z,26.18
2023-02-23T05:26:12.124Z,26.17
2023-02-23T05:27:12.096Z,26.17
2023-02-23T05:28:12.119Z,26.20
2023-02-23T05:29:12.155Z,26.18
2023-02-23T05:30:12.161Z,26.18
2023-02-23T05:31:12.328Z,26.20
2023-02-23T05:32:12.417Z,26.22
2023-02-23T05:33:12.260Z,26.18
2023-02-23T05:34:12.252Z,26.22
2023-02-23T05:35:12.287Z,26.20
2023-02-23T05:36:12.359Z,26.21
2023-02-23T05:37:12.332Z,26.22
2023-02-23T05:38:12.334Z,26.20
2023-02-23T05:39:12.401Z,26.22
2023-02-23T05:40:12.408Z,26.22
2023-02-23T05:41:12.409Z,26.22
2023-02-23T05:42:12.412Z,26.21
2023-02-23T05:43:12.459Z,26.22
2023-02-23T05:44:12.481Z,26.22
2023-02-23T05:45:12.481Z,26.22
2023-02-23T05:46:12.538Z,26.24
2023-02-23T05:47:12.529Z,26.24
2023-02-23T05:48:12.536Z,26.24
2023-02-23T05:49:12.808Z,26.22
2023-02-23T05:50:12.605Z,26.24
2023-02-23T05:51:12.597Z,26.27
2023-02-23T05:52:12.640Z,26.25
2023-02-23T05:53:12.644Z,26.22
2023-02-23T05:54:13.211Z,26.27
2023-02-23T05:55:12.683Z,26.24
2023-02-23T05:56:12.693Z,26.22
2023-02-23T05:57:12.689Z,26.24
2023-02-23T05:58:12.736Z,26.27
2023-02-23T05:59:12.752Z,26.24
2023-02-23T06:00:12.771Z,26.25
2023-02-23T06:02:12.823Z,26.27
2023-02-23T06:03:12.748Z,26.25
2023-02-23T06:04:12.751Z,26.27
2023-02-23T06:05:12.745Z,26.25
2023-02-23T06:06:12.752Z,26.25
2023-02-23T06:07:12.748Z,26.27
2023-02-23T06:08:12.756Z,26.28
2023-02-23T06:09:12.717Z,26.27
2023-02-23T06:10:12.712Z,26.28
2023-02-23T06:11:12.719Z,26.27
2023-02-23T06:12:12.723Z,26.28
2023-02-23T06:13:12.703Z,26.30
2023-02-23T06:14:12.691Z,26.28
2023-02-23T06:15:12.896Z,26.30
2023-02-23T06:16:12.811Z,26.34
2023-02-23T06:17:12.654Z,26.32
2023-02-23T06:18:12.671Z,26.34
2023-02-23T06:19:12.665Z,26.34
2023-02-23T06:20:12.634Z,26.36
2023-02-23T06:21:12.636Z,26.36
2023-02-23T06:22:12.639Z,26.35
2023-02-23T06:23:12.627Z,26.38
2023-02-23T06:24:12.580Z,26.36
2023-02-23T06:25:12.652Z,26.42
2023-02-23T06:26:12.600Z,26.39
2023-02-23T06:27:12.616Z,26.39
2023-02-23T06:28:12.583Z,26.41
2023-02-23T06:29:12.592Z,26.39
2023-02-23T06:30:12.536Z,26.36
2023-02-23T06:31:12.631Z,26.27
2023-02-23T06:32:12.683Z,26.09
2023-02-23T06:33:12.567Z,25.98
2023-02-23T06:34:12.528Z,25.85
2023-02-23T06:35:12.542Z,25.76
2023-02-23T06:36:12.532Z,25.57
2023-02-23T06:37:12.515Z,25.49
2023-02-23T06:38:12.555Z,25.34
2023-02-23T06:39:12.520Z,25.26
2023-02-23T06:40:12.566Z,25.18
2023-02-23T06:41:12.770Z,25.12
2023-02-23T06:42:12.542Z,25.13
2023-02-23T06:43:12.588Z,25.15
2023-02-23T06:44:12.628Z,25.15
2023-02-23T06:45:12.617Z,25.16
2023-02-23T06:46:22.795Z,25.18
2023-02-23T06:47:12.658Z,25.18
2023-02-23T06:48:12.663Z,25.23
2023-02-23T06:49:14.375Z,25.30
2023-02-23T06:50:12.642Z,25.36
2023-02-23T06:51:12.815Z,25.44
2023-02-23T06:52:12.673Z,25.52
2023-02-23T06:53:12.711Z,25.59
2023-02-23T06:54:13.375Z,25.66
2023-02-23T06:55:12.689Z,25.72
2023-02-23T06:56:12.749Z,25.80
2023-02-23T06:57:13.449Z,25.85
2023-02-23T06:58:12.648Z,25.91
2023-02-23T06:59:13.637Z,25.98
2023-02-23T07:00:13.644Z,26.05
2023-02-23T07:01:12.644Z,26.14
2023-02-23T07:02:12.568Z,26.15
2023-02-23T07:03:13.293Z,26.24
2023-02-23T07:04:14.864Z,26.28
2023-02-23T07:05:12.612Z,26.32
2023-02-23T07:06:12.535Z,26.35
2023-02-23T07:07:12.508Z,26.42
2023-02-23T07:08:12.537Z,26.44
2023-02-23T07:09:12.509Z,26.46
2023-02-23T07:10:12.502Z,26.53
2023-02-23T07:11:12.467Z,26.56
2023-02-23T07:12:12.799Z,26.58
2023-02-23T07:13:12.454Z,26.58
2023-02-23T07:14:15.312Z,26.60
2023-02-23T07:15:13.449Z,26.63
2023-02-23T07:16:12.465Z,26.59
2023-02-23T07:17:12.779Z,26.63
2023-02-23T07:18:12.448Z,26.68
2023-02-23T07:19:13.461Z,26.65
2023-02-23T07:20:12.489Z,26.68
2023-02-23T07:21:12.398Z,26.69
2023-02-23T07:22:12.796Z,26.68
2023-02-23T07:23:12.374Z,26.75
2023-02-23T07:24:12.386Z,26.75
2023-02-23T07:25:12.402Z,26.78
2023-02-23T07:26:12.419Z,26.79
2023-02-23T07:27:12.446Z,26.81
2023-02-23T07:28:12.532Z,26.76
2023-02-23T07:29:12.585Z,26.79
2023-02-23T07:30:12.645Z,26.81
2023-02-23T07:31:12.753Z,26.79
2023-02-23T07:32:13.133Z,26.81
2023-02-23T07:33:12.752Z,26.83
2023-02-23T07:34:12.806Z,26.87
2023-02-23T07:35:12.870Z,26.89
2023-02-23T07:36:12.932Z,26.93
2023-02-23T07:37:13.301Z,26.94
2023-02-23T07:38:13.027Z,26.89
2023-02-23T07:39:13.080Z,26.86
2023-02-23T07:40:13.150Z,26.87
2023-02-23T07:41:13.226Z,26.86
2023-02-23T07:42:13.246Z,26.82
2023-02-23T07:43:13.323Z,26.78
2023-02-23T07:44:13.428Z,26.78
2023-02-23T07:45:13.415Z,26.71
2023-02-23T07:46:13.509Z,26.68
2023-02-23T07:47:13.503Z,26.65
2023-02-23T07:48:13.526Z,26.60
2023-02-23T07:49:13.523Z,26.62
2023-02-23T07:50:13.579Z,26.65
2023-02-23T07:51:13.577Z,26.65
2023-02-23T07:52:13.606Z,26.75
2023-02-23T07:53:13.619Z,26.73
2023-02-23T07:54:13.692Z,26.72
2023-02-23T07:55:13.649Z,26.73
2023-02-23T07:56:13.697Z,26.72
2023-02-23T07:57:13.697Z,26.71
2023-02-23T07:58:13.860Z,26.78
2023-02-23T07:59:13.762Z,26.83
2023-02-23T08:00:13.818Z,26.83
2023-02-23T08:01:13.966Z,26.82
2023-02-23T08:02:13.822Z,26.78
2023-02-23T08:03:13.845Z,26.73
2023-02-23T08:04:13.922Z,26.75
2023-02-23T08:05:13.903Z,26.75
2023-02-23T08:06:13.939Z,26.73
2023-02-23T08:07:13.927Z,26.75
2023-02-23T08:08:13.947Z,26.71
2023-02-23T08:09:13.937Z,26.69
2023-02-23T08:10:13.947Z,26.71
2023-02-23T08:11:13.962Z,26.72
2023-02-23T08:12:13.945Z,26.68
2023-02-23T08:13:13.923Z,26.69
2023-02-23T08:14:13.983Z,26.66
2023-02-23T08:15:13.958Z,26.69
2023-02-23T08:16:13.931Z,26.69
2023-02-23T08:17:13.921Z,26.71
2023-02-23T08:18:13.952Z,26.68
2023-02-23T08:19:13.972Z,26.68
2023-02-23T08:20:14.090Z,26.68
2023-02-23T08:21:13.913Z,26.73
2023-02-23T08:22:13.956Z,26.72
2023-02-23T08:23:13.987Z,26.79
2023-02-23T08:24:13.968Z,26.85
2023-02-23T08:25:13.964Z,26.94
2023-02-23T08:26:13.986Z,27.00
2023-02-23T08:27:14.022Z,27.02
2023-02-23T08:28:14.068Z,26.99
2023-02-23T08:29:14.041Z,26.94
2023-02-23T08:30:14.119Z,26.90
2023-02-23T08:31:14.176Z,26.86
2023-02-23T08:32:14.183Z,26.96
2023-02-23T08:33:14.095Z,27.00
2023-02-23T08:34:14.108Z,26.99
2023-02-23T08:35:14.156Z,27.00
2023-02-23T08:36:14.197Z,26.81
2023-02-23T08:37:14.222Z,26.36
2023-02-23T08:38:14.329Z,26.01
2023-02-23T08:39:14.248Z,25.74
2023-02-23T08:40:14.292Z,25.34
2023-02-23T08:41:14.291Z,24.93
2023-02-23T08:42:14.305Z,24.75
2023-02-23T08:43:14.338Z,24.71
2023-02-23T08:44:14.385Z,24.74
2023-02-23T08:45:15.341Z,24.85
2023-02-23T08:46:14.365Z,24.95
2023-02-23T08:47:14.337Z,25.02
2023-02-23T08:48:14.414Z,25.18
2023-02-23T08:49:14.302Z,25.23
2023-02-23T08:50:14.315Z,25.39
2023-02-23T08:51:14.288Z,25.50
2023-02-23T08:52:14.388Z,25.54
2023-02-23T08:53:14.870Z,25.63
2023-02-23T08:54:14.321Z,25.67
2023-02-23T08:55:14.291Z,25.69
2023-02-23T08:56:14.305Z,25.80
2023-02-23T08:57:14.336Z,25.81
2023-02-23T08:58:14.306Z,25.87
2023-02-23T08:59:14.348Z,25.91
2023-02-23T09:00:14.486Z,25.97
2023-02-23T09:01:14.490Z,26.01
2023-02-23T09:02:14.499Z,26.04
2023-02-23T09:03:14.495Z,26.09
2023-02-23T09:04:14.555Z,26.14
2023-02-23T09:05:14.711Z,26.15
2023-02-23T09:06:14.671Z,26.18
2023-02-23T09:07:14.629Z,26.22
2023-02-23T09:08:14.638Z,26.24
2023-02-23T09:09:14.696Z,26.28
2023-02-23T09:10:14.737Z,26.36
2023-02-23T09:11:14.734Z,26.35
2023-02-23T09:12:14.883Z,26.36
2023-02-23T09:13:14.850Z,26.46
2023-02-23T09:14:14.802Z,26.55
2023-02-23T09:15:14.842Z,26.60
2023-02-23T09:16:14.947Z,26.65
2023-02-23T09:17:17.118Z,26.66
2023-02-23T09:18:14.940Z,26.65
2023-02-23T09:19:14.901Z,26.65
2023-02-23T09:20:14.865Z,26.66
2023-02-23T09:36:14.790Z,26.92
2023-02-23T09:37:14.804Z,27.00
2023-02-23T09:38:14.855Z,27.03
2023-02-23T09:39:14.811Z,27.07
2023-02-23T09:40:14.813Z,27.07
2023-02-23T09:41:14.771Z,27.11
2023-02-23T09:42:14.746Z,27.17
2023-02-23T09:43:14.791Z,27.17
2023-02-23T09:44:14.734Z,27.20
2023-02-23T09:45:14.735Z,27.22
2023-02-23T09:46:14.765Z,27.22
2023-02-23T09:47:14.699Z,27.26
2023-02-23T09:48:14.775Z,27.26
2023-02-23T09:49:14.702Z,27.27
2023-02-23T09:50:14.684Z,27.23
2023-02-23T09:51:14.685Z,27.23
2023-02-23T09:52:14.838Z,27.17
2023-02-23T09:53:14.698Z,27.10
2023-02-23T09:54:14.881Z,27.09
2023-02-23T09:55:14.651Z,27.04
2023-02-23T09:56:14.674Z,27.02
2023-02-23T09:57:14.628Z,26.99
2023-02-23T09:59:14.648Z,26.99
2023-02-23T10:00:14.625Z,26.93
2023-02-23T10:01:14.668Z,26.92
2023-02-23T10:02:14.605Z,26.90
2023-02-23T10:03:14.602Z,26.86
2023-02-23T10:04:14.872Z,26.85
2023-02-23T10:05:14.627Z,26.87
2023-02-23T10:06:14.624Z,26.82
2023-02-23T10:07:14.588Z,26.83
2023-02-23T10:08:14.571Z,26.83
2023-02-23T10:09:14.911Z,26.82
2023-02-23T10:10:14.655Z,26.81
2023-02-23T10:11:14.562Z,26.78
2023-02-23T10:12:16.404Z,26.78
2023-02-23T10:13:14.537Z,26.81
2023-02-23T10:15:14.535Z,26.78
2023-02-23T10:16:14.561Z,26.89
2023-02-23T10:17:14.506Z,26.97
2023-02-23T10:18:14.483Z,27.00
2023-02-23T10:20:14.494Z,27.03
2023-02-23T10:21:14.454Z,26.97
2023-02-23T10:23:14.472Z,26.94
2023-02-23T10:24:14.455Z,26.89
2023-02-23T10:25:14.470Z,26.81
2023-02-23T10:26:14.419Z,26.75
2023-02-23T10:27:14.420Z,26.71
2023-02-23T10:28:14.441Z,26.60
2023-02-23T10:29:14.427Z,26.53
2023-02-23T10:30:14.380Z,26.44
2023-02-23T10:31:14.555Z,26.39
2023-02-23T10:32:14.582Z,26.34
2023-02-23T10:33:14.515Z,26.30
2023-02-23T10:34:14.556Z,26.27
2023-02-23T10:35:14.593Z,26.24
2023-02-23T10:36:14.642Z,26.15
2023-02-23T10:37:14.747Z,26.12
2023-02-23T10:38:14.780Z,26.09
2023-02-23T10:39:14.894Z,26.04
2023-02-23T10:40:14.914Z,26.03
2023-02-23T10:41:15.198Z,26.03
2023-02-23T10:42:15.346Z,26.00
2023-02-23T10:43:15.418Z,26.01
2023-02-23T10:44:17.158Z,26.03
2023-02-23T10:45:15.041Z,26.04
2023-02-23T10:46:15.108Z,26.09
2023-02-23T10:47:15.119Z,26.18
2023-02-23T10:48:15.155Z,26.20
2023-02-23T10:49:15.072Z,26.25
2023-02-23T10:50:15.090Z,26.25
2023-02-23T10:51:15.098Z,26.25
2023-02-23T10:52:15.204Z,26.28
2023-02-23T10:53:15.230Z,26.30
2023-02-23T10:54:15.327Z,26.35
2023-02-23T10:55:15.292Z,26.41
2023-02-23T10:56:15.392Z,26.46
2023-02-23T10:57:15.380Z,26.53
2023-02-23T10:58:15.384Z,26.62
2023-02-23T10:59:16.073Z,26.68
2023-02-23T11:00:15.899Z,26.69
2023-02-23T11:01:15.710Z,26.72
2023-02-23T11:02:15.723Z,26.83
2023-02-23T11:03:15.590Z,26.81
2023-02-23T11:04:15.568Z,26.53
2023-02-23T11:05:15.642Z,26.28
2023-02-23T11:06:15.681Z,26.01
2023-02-23T11:07:15.645Z,25.90
2023-02-23T11:08:16.156Z,25.87
2023-02-23T11:09:16.100Z,25.84
2023-02-23T11:10:15.935Z,25.83
2023-02-23T11:11:15.993Z,25.77
2023-02-23T11:12:15.780Z,25.53
2023-02-23T11:13:15.785Z,25.36
2023-02-23T11:14:16.848Z,25.21
2023-02-23T11:15:15.808Z,25.15
2023-02-23T11:16:15.866Z,25.16
2023-02-23T11:17:15.825Z,25.18
2023-02-23T11:18:15.762Z,25.19
2023-02-23T11:19:15.767Z,25.19
2023-02-23T11:20:15.779Z,25.22
2023-02-23T11:21:15.752Z,25.22
2023-02-23T11:22:15.753Z,25.25
2023-02-23T11:23:15.715Z,25.26
2023-02-23T11:24:15.740Z,25.26
2023-02-23T11:25:15.747Z,25.30
2023-02-23T11:26:15.757Z,25.33
2023-02-23T11:27:15.741Z,25.33
2023-02-23T11:28:15.696Z,25.34
2023-02-23T11:29:15.668Z,25.37
2023-02-23T11:30:15.928Z,25.36
2023-02-23T11:31:15.716Z,25.37
2023-02-23T11:32:15.838Z,25.39
2023-02-23T11:33:15.719Z,25.42
2023-02-23T11:34:15.664Z,25.39
2023-02-23T11:35:15.955Z,25.39
2023-02-23T11:36:15.635Z,25.39
2023-02-23T11:37:15.653Z,25.37
2023-02-23T11:38:15.610Z,25.36
2023-02-23T11:39:15.713Z,25.40
2023-02-23T11:40:15.911Z,25.40
2023-02-23T11:41:15.605Z,25.42
2023-02-23T11:42:15.628Z,25.47
2023-02-23T11:43:15.597Z,25.49
2023-02-23T11:44:15.591Z,25.54
2023-02-23T11:45:15.645Z,25.59
2023-02-23T13:07:19.182Z,26.15
2023-02-23T13:08:19.532Z,26.17
2023-02-23T13:09:19.247Z,26.17
2023-02-23T13:10:19.250Z,26.17
2023-02-23T13:11:19.659Z,26.18
2023-02-23T13:12:19.317Z,26.20
2023-02-23T13:13:19.304Z,26.24
2023-02-23T13:14:19.336Z,26.28
2023-02-23T13:15:19.378Z,26.28
2023-02-23T13:16:19.462Z,26.28
2023-02-23T13:17:19.429Z,26.27
2023-02-23T13:18:19.422Z,26.28
2023-02-23T13:19:19.449Z,26.27
2023-02-23T13:20:19.466Z,26.30
2023-02-23T13:21:19.865Z,26.28
2023-02-23T13:22:19.520Z,26.31
2023-02-23T13:23:19.549Z,26.32
2023-02-23T13:24:19.572Z,26.35
2023-02-23T13:25:19.584Z,26.36
2023-02-23T13:26:19.560Z,26.38
2023-02-23T13:27:19.564Z,26.42
2023-02-23T13:28:19.560Z,26.44
2023-02-23T13:29:19.568Z,26.44
2023-02-23T13:30:19.577Z,26.48
2023-02-23T13:31:20.003Z,26.42
2023-02-23T13:32:19.715Z,26.39
2023-02-23T13:33:19.631Z,26.36
2023-02-23T13:34:19.649Z,26.32
2023-02-23T13:35:19.692Z,26.25
2023-02-23T13:36:19.760Z,26.20
2023-02-23T13:37:19.830Z,26.15
2023-02-23T13:38:19.856Z,26.08
2023-02-23T13:39:19.925Z,26.03
2023-02-23T13:40:19.968Z,26.03
2023-02-23T13:41:20.237Z,26.03
2023-02-23T13:42:20.079Z,26.01
2023-02-23T13:43:20.092Z,26.05
2023-02-23T13:44:20.128Z,26.05
2023-02-23T13:45:20.280Z,26.07
2023-02-23T13:46:20.244Z,26.08
2023-02-23T13:47:20.256Z,26.11
2023-02-23T13:48:20.247Z,26.12
2023-02-23T13:49:20.291Z,26.17
2023-02-23T13:50:20.301Z,26.17
2023-02-23T13:51:20.888Z,26.18
2023-02-23T13:52:20.670Z,26.21
2023-02-23T13:53:20.553Z,26.25
2023-02-23T13:54:20.413Z,26.27
2023-02-23T13:55:20.391Z,26.28
2023-02-23T13:56:20.378Z,26.27
2023-02-23T13:57:20.377Z,26.31
2023-02-23T13:58:20.386Z,26.32
2023-02-23T13:59:20.414Z,26.32
2023-02-23T14:14:20.500Z,26.39
2023-02-23T14:15:20.506Z,26.35
2023-02-23T14:16:20.577Z,26.38
2023-02-23T14:17:20.536Z,26.38
2023-02-23T14:18:20.576Z,26.39
2023-02-23T14:19:20.538Z,26.41
2023-02-23T14:20:29.230Z,26.41
2023-02-23T14:21:21.846Z,26.39
2023-02-23T14:22:20.526Z,26.41
2023-02-23T14:23:20.512Z,26.44
2023-02-23T14:24:20.589Z,26.44
2023-02-23T14:25:20.539Z,26.44
2023-02-23T14:26:20.511Z,26.46
2023-02-23T14:40:20.555Z,26.51
2023-02-23T15:06:20.522Z,26.35
2023-02-23T15:14:28.181Z,26.21
2023-02-23T15:15:21.418Z,26.17
2023-02-23T15:16:20.531Z,26.15
2023-02-23T15:17:20.414Z,26.11
2023-02-23T15:18:20.436Z,26.14
2023-02-23T15:19:20.920Z,26.12
2023-02-23T15:20:20.396Z,26.18
2023-02-23T15:21:20.633Z,26.17
2023-02-23T15:22:20.410Z,26.17
2023-02-23T15:23:20.458Z,26.20
2023-02-23T15:24:20.367Z,26.21
2023-02-23T15:25:20.386Z,26.24
2023-02-23T15:26:24.366Z,26.22
2023-02-23T15:27:20.350Z,26.24
2023-02-23T15:28:20.352Z,26.27
2023-02-23T15:29:20.340Z,26.30
2023-02-23T15:30:20.336Z,26.32
2023-02-23T15:31:20.671Z,26.31
2023-02-23T15:32:20.510Z,26.32
2023-02-23T15:33:20.312Z,26.35
2023-02-23T15:34:20.296Z,26.36
2023-02-23T15:35:20.353Z,26.38
2023-02-23T15:36:20.305Z,26.38
2023-02-23T15:37:20.308Z,26.39
2023-02-23T15:38:41.934Z,26.41
2023-02-23T15:39:21.267Z,26.38
2023-02-23T15:40:20.267Z,26.42
2023-02-23T15:41:20.610Z,26.41
2023-02-23T15:42:20.252Z,26.42
2023-02-23T15:43:20.243Z,26.42
2023-02-23T15:44:20.221Z,26.44
2023-02-23T15:45:20.241Z,26.41
2023-02-23T15:46:20.216Z,26.42
2023-02-23T15:47:20.208Z,26.44
2023-02-23T15:48:20.173Z,26.45
2023-02-23T15:49:20.218Z,26.45
2023-02-23T15:50:30.978Z,26.42
2023-02-23T15:51:21.606Z,26.44
2023-02-23T15:52:20.178Z,26.41
2023-02-23T15:53:20.168Z,26.45
2023-02-23T15:54:20.159Z,26.44
2023-02-23T15:55:20.165Z,26.44
2023-02-23T15:56:20.142Z,26.42
2023-02-23T15:57:20.125Z,26.45
2023-02-23T15:58:20.179Z,26.44
2023-02-23T15:59:20.216Z,26.42
2023-02-23T16:00:20.092Z,26.42
2023-02-23T16:01:20.114Z,26.46
2023-02-23T16:02:20.149Z,26.41
2023-02-23T16:03:20.133Z,26.44
2023-02-23T16:04:20.148Z,26.42
2023-02-23T16:05:20.088Z,26.42
2023-02-23T16:06:20.047Z,26.44
2023-02-23T16:07:20.041Z,26.42
2023-02-23T16:08:20.038Z,26.42
2023-02-23T16:09:20.124Z,26.41
2023-02-23T16:10:20.042Z,26.39
2023-02-23T16:11:20.321Z,26.41
2023-02-23T16:12:20.051Z,26.42
2023-02-23T16:13:20.015Z,26.39
2023-02-23T16:14:20.019Z,26.42
2023-02-23T16:15:19.998Z,26.39
2023-02-23T16:16:20.619Z,26.39
2023-02-23T16:17:20.029Z,26.39
2023-02-23T16:18:19.978Z,26.41
2023-02-23T16:19:19.986Z,26.38
2023-02-23T16:20:19.978Z,26.41
2023-02-23T16:21:19.970Z,26.38
2023-02-23T16:22:19.969Z,26.39
2023-02-23T16:23:25.174Z,26.39
2023-02-23T16:24:21.004Z,26.36
2023-02-23T16:25:20.008Z,26.39
2023-02-23T16:26:20.249Z,26.42
2023-02-23T16:27:19.947Z,26.41
2023-02-23T16:28:20.008Z,26.41
2023-02-23T16:29:19.963Z,26.39
2023-02-23T16:30:19.954Z,26.39
2023-02-23T16:31:20.149Z,26.41
2023-02-23T16:32:20.163Z,26.39
2023-02-23T16:33:19.937Z,26.39
2023-02-23T16:34:19.917Z,26.41
2023-02-23T16:35:19.932Z,26.38
2023-02-23T16:36:20.224Z,26.39
2023-02-23T16:37:19.888Z,26.41
2023-02-23T16:38:19.865Z,26.38
2023-02-23T16:39:19.886Z,26.38
2023-02-23T16:40:19.871Z,26.39
2023-02-23T16:41:19.870Z,26.39
2023-02-23T16:42:19.872Z,26.36
2023-02-23T16:43:19.843Z,26.41
2023-02-23T16:44:19.863Z,26.36
2023-02-23T16:45:19.828Z,26.39
2023-02-23T16:46:20.372Z,26.42
2023-02-23T16:47:19.825Z,26.39
2023-02-23T16:48:19.825Z,26.39
2023-02-23T16:49:19.827Z,26.39
2023-02-23T16:50:20.993Z,26.38
2023-02-23T16:51:19.816Z,26.36
2023-02-23T16:52:19.782Z,26.39
2023-02-23T16:53:19.780Z,26.38
2023-02-23T16:54:19.799Z,26.36
2023-02-23T16:55:19.796Z,26.39
2023-02-23T16:56:20.109Z,26.38
2023-02-23T16:57:19.768Z,26.36
2023-02-23T16:58:19.802Z,26.36
2023-02-23T16:59:19.793Z,26.38
2023-02-23T17:00:19.839Z,26.36
2023-02-23T17:01:20.450Z,26.35
2023-02-23T17:02:19.897Z,26.36
2023-02-23T17:03:19.861Z,26.39
2023-02-23T17:04:19.975Z,26.38
2023-02-23T17:05:19.904Z,26.35
2023-02-23T17:06:20.197Z,26.35
2023-02-23T17:07:20.462Z,26.36
2023-02-23T17:08:19.923Z,26.35
2023-02-23T17:09:19.964Z,26.35
2023-02-23T17:10:19.981Z,26.34
2023-02-23T17:11:20.395Z,26.35
2023-02-23T17:12:19.988Z,26.34
2023-02-23T17:13:20.034Z,26.34
2023-02-23T17:14:20.043Z,26.31
2023-02-23T17:15:20.047Z,26.31
2023-02-23T17:16:20.418Z,26.32
2023-02-23T17:17:20.122Z,26.31
2023-02-23T17:18:20.077Z,26.31
2023-02-23T17:19:20.166Z,26.31
2023-02-23T17:20:20.137Z,26.27
2023-02-23T17:21:20.393Z,26.28
2023-02-23T17:22:20.135Z,26.27
2023-02-23T17:23:20.176Z,26.27
2023-02-23T17:24:20.187Z,26.28
2023-02-23T17:25:21.496Z,26.25
2023-02-23T17:26:20.241Z,26.25
2023-02-23T17:27:20.276Z,26.24
2023-02-23T17:28:20.322Z,26.24
2023-02-23T17:29:20.350Z,26.24
2023-02-23T17:30:20.346Z,26.24
2023-02-23T17:31:20.933Z,26.22
2023-02-23T17:32:20.458Z,26.21
2023-02-23T17:33:20.452Z,26.21
2023-02-23T17:34:20.467Z,26.20
2023-02-23T17:35:20.474Z,26.18
2023-02-23T17:36:20.536Z,26.20
2023-02-23T17:37:20.528Z,26.20
2023-02-23T17:38:20.554Z,26.17
2023-02-23T17:39:20.578Z,26.20
2023-02-23T17:40:20.605Z,26.18
2023-02-23T17:41:20.961Z,26.17
2023-02-23T17:42:20.686Z,26.15
2023-02-23T17:43:22.542Z,26.15
2023-02-23T17:44:20.729Z,26.17
2023-02-23T17:45:20.758Z,26.17
2023-02-23T17:46:20.833Z,26.17
2023-02-23T17:47:20.846Z,26.14
2023-02-23T17:48:20.871Z,26.15
2023-02-23T19:54:26.470Z,25.81
2023-02-23T19:55:26.542Z,25.80
2023-02-23T19:56:26.589Z,25.79
2023-02-23T19:57:26.649Z,25.80
2023-02-23T19:58:26.709Z,25.80
2023-02-23T19:59:26.771Z,25.81
2023-02-23T20:00:26.814Z,25.81
2023-02-23T20:01:26.887Z,25.83
2023-02-23T20:02:27.036Z,25.83
2023-02-23T20:03:27.020Z,25.81
2023-02-23T20:04:27.087Z,25.81
2023-02-23T20:05:27.150Z,25.79
2023-02-23T20:06:27.189Z,25.80
2023-02-23T20:07:27.221Z,25.81
2023-02-23T20:08:27.278Z,25.77
2023-02-23T20:09:27.333Z,25.79
2023-02-23T20:10:27.431Z,25.79
2023-02-23T20:11:27.475Z,25.79
2023-02-23T20:12:27.527Z,25.80
2023-02-23T20:13:27.615Z,25.77
2023-02-23T20:14:27.657Z,25.77
2023-02-23T20:15:27.705Z,25.80
2023-02-23T20:16:27.808Z,25.77
2023-02-23T20:17:27.844Z,25.79
2023-02-23T20:18:27.877Z,25.79
2023-02-23T20:19:27.956Z,25.77
2023-02-23T20:20:28.018Z,25.77
2023-02-23T20:21:28.111Z,25.77
2023-02-23T20:22:28.129Z,25.79
2023-02-23T20:23:28.223Z,25.77
2023-02-23T20:24:28.233Z,25.77
2023-02-23T20:25:28.301Z,25.76
2023-02-23T20:26:28.389Z,25.77
2023-02-23T20:27:28.450Z,25.76
2023-02-23T20:28:28.504Z,25.74
2023-02-23T20:29:28.539Z,25.76
2023-02-23T20:30:28.629Z,25.77
2023-02-23T20:31:28.750Z,25.77
2023-02-23T20:32:28.899Z,25.77
2023-02-23T20:33:28.792Z,25.76
2023-02-23T20:34:28.878Z,25.77
2023-02-23T20:35:28.962Z,25.76
2023-02-23T20:36:28.984Z,25.74
2023-02-23T20:37:29.084Z,25.76
2023-02-23T20:38:29.119Z,25.73
2023-02-23T20:39:29.193Z,25.74
2023-02-23T20:40:29.278Z,25.73
2023-02-23T20:41:29.324Z,25.74
2023-02-23T20:42:29.366Z,25.74
2023-02-23T20:43:29.427Z,25.74
2023-02-23T20:44:29.531Z,25.74
2023-02-23T20:45:29.584Z,25.73
2023-02-23T20:46:29.629Z,25.74
2023-02-23T20:47:29.712Z,25.73
2023-02-23T20:48:29.729Z,25.76
2023-02-23T20:49:29.783Z,25.73
2023-02-23T20:50:30.511Z,25.73
2023-02-23T20:51:29.921Z,25.70
2023-02-23T20:52:30.003Z,25.72
2023-02-23T20:53:30.044Z,25.72
2023-02-23T20:54:30.098Z,25.74
2023-02-23T20:55:30.159Z,25.73
2023-02-23T20:56:30.227Z,25.74
2023-02-23T20:57:30.300Z,25.73
2023-02-23T20:58:30.344Z,25.73
2023-02-23T20:59:30.378Z,25.74
2023-02-23T21:00:30.465Z,25.74
2023-02-23T21:01:30.522Z,25.73
2023-02-23T21:02:30.575Z,25.73
2023-02-23T21:03:30.713Z,25.70
2023-02-23T21:04:30.701Z,25.73
2023-02-23T21:05:30.786Z,25.74
2023-02-23T21:06:30.805Z,25.70
2023-02-23T21:07:30.859Z,25.74
2023-02-23T21:08:30.920Z,25.70
2023-02-23T21:09:31.001Z,25.73
2023-02-23T21:10:31.062Z,25.72
2023-02-23T21:11:31.091Z,25.70
2023-02-23T21:12:31.164Z,25.70
2023-02-23T21:13:31.230Z,25.73
2023-02-23T21:14:31.305Z,25.73